Time;durP1;ratioP1;P1;durP2;ratioP2;P2;SDS_P1;SDS_P2;PMS_P1;PMS_P2;Temp;Humidity;BMP_temperature;BMP_pressure;BME280_temperature;BME280_humidity;BME280_pressure;Samples;Min_cycle;Max_cycle;Signal;HPM_P1;HPM_P2
2022/04/25 00:01:17;;;;;;;;;;;;;;;13.94;44.41;99668.31;4981032;28;7213;-73
2022/04/25 00:03:44;;;;;;;;;;;;;;;13.89;45.33;99675.94;4956736;28;7094;-73
2022/04/25 00:06:11;;;;;;;;;;;;;;;13.84;44.94;99672.41;4981474;28;7443;-73
2022/04/25 00:08:37;;;;;;;;;;;;;;;13.81;45.31;99672.31;4965274;28;6804;-73
2022/04/25 00:11:04;;;;;;;;;;;;;;;13.80;45.73;99680.88;4981621;28;6795;-73
2022/04/25 00:13:30;;;;;;;;;;;;;;;13.79;45.35;99684.31;4979411;28;6792;-73
2022/04/25 00:15:56;;;;;;;;;;;;;;;13.74;45.36;99677.34;4963414;28;7070;-73
2022/04/25 00:18:22;;;;;;;;;;;;;;;13.70;45.16;99680.66;4982212;28;6980;-73
2022/04/25 00:20:49;;;;;;;;;;;;;;;13.66;46.00;99675.41;4983220;28;6820;-73
2022/04/25 00:23:15;;;;;;;;;;;;;;;13.61;45.13;99678.75;4976709;28;6812;-73
2022/04/25 00:25:41;;;;;;;;;;;;;;;13.56;45.38;99680.34;4978853;28;7847;-73
2022/04/25 00:28:07;;;;;;;;;;;;;;;13.52;45.96;99685.38;4982714;28;6796;-73
2022/04/25 00:30:34;;;;;;;;;;;;;;;13.45;45.41;99684.34;4980275;28;6980;-73
2022/04/25 00:33:01;;;;;;;;;;;;;;;13.38;46.17;99685.88;4980437;28;6796;-73
2022/04/25 00:35:27;;;;;;;;;;;;;;;13.33;46.33;99682.34;4999863;28;7212;-74
2022/04/25 00:37:54;;;;;;;;;;;;;;;13.29;46.87;99686.53;4982952;28;7244;-75
2022/04/25 00:40:22;;;;;;;;;;;;;;;13.26;46.47;99688.16;4981929;28;6876;-75
2022/04/25 00:42:48;;;;;;;;;;;;;;;13.21;46.76;99685.47;4981526;28;6990;-75
2022/04/25 00:45:16;;;;;;;;;;;;;;;13.17;46.26;99684.50;4981686;28;7267;-75
2022/04/25 00:47:43;;;;;;;;;;;;;;;13.12;46.86;99686.06;4980870;28;6884;-75
2022/04/25 00:50:11;;;;;;;;;;;;;;;13.10;47.33;99689.47;4981365;28;6831;-75
2022/04/25 00:52:37;;;;;;;;;;;;;;;13.11;46.46;99684.34;4994139;28;6820;-75
2022/04/25 00:55:07;;;;;;;;;;;;;;;13.14;47.72;99684.44;4966048;28;6797;-75
2022/04/25 00:57:34;;;;;;;;;;;;;;;13.19;47.47;99681.97;4982832;28;6812;-75
2022/04/25 01:00:01;;;;;;;;;;;;;;;13.23;47.03;99680.34;4979657;28;8219;-75
2022/04/25 01:02:27;;;;;;;;;;;;;;;13.25;46.96;99682.13;4975537;28;7091;-75
2022/04/25 01:04:58;;;;;;;;;;;;;;;13.25;47.05;99678.69;4982647;28;7054;-75
2022/04/25 01:07:23;;;;;;;;;;;;;;;13.23;47.18;99678.66;4999002;28;6800;-75
2022/04/25 01:09:50;;;;;;;;;;;;;;;13.22;47.14;99669.19;4982280;28;7381;-75
2022/04/25 01:12:15;;;;;;;;;;;;;;;13.23;47.87;99672.63;4980224;28;6815;-75
2022/04/25 01:14:41;;;;;;;;;;;;;;;13.20;47.50;99674.28;4979864;28;7047;-75
2022/04/25 01:17:07;;;;;;;;;;;;;;;13.18;47.57;99673.38;4979978;28;6799;-75
2022/04/25 01:19:34;;;;;;;;;;;;;;;13.17;47.23;99679.38;4948046;28;6968;-75
2022/04/25 01:22:10;;;;;;;;;;;;;;;13.17;47.10;99688.75;4979218;28;6994;-75
2022/04/25 01:27:21;;;;;;;;;;;;;;;13.13;48.14;99676.66;4979372;28;7322;-75
2022/04/25 01:29:53;;;;;;;;;;;;;;;13.16;47.33;99682.78;4978702;28;6923;-75
2022/04/25 01:32:21;;;;;;;;;;;;;;;13.20;47.45;99678.56;4977778;28;6812;-75
2022/04/25 01:34:47;;;;;;;;;;;;;;;13.26;48.47;99676.13;4960546;28;7220;-75
2022/04/25 01:37:18;;;;;;;;;;;;;;;13.32;48.37;99688.28;4983588;28;6882;-75
2022/04/25 01:39:50;;;;;;;;;;;;;;;13.40;48.22;99698.81;4986603;28;6800;-75
2022/04/25 01:42:18;;;;;;;;;;;;;;;13.46;48.37;99707.56;4984484;28;6803;-75
2022/04/25 01:44:44;;;;;;;;;;;;;;;13.49;48.61;99706.78;4967801;28;7052;-75
2022/04/25 01:47:10;;;;;;;;;;;;;;;13.52;48.11;99721.41;5000942;28;7172;-75
2022/04/25 01:49:36;;;;;;;;;;;;;;;13.50;48.90;99725.66;4986296;28;6800;-76
2022/04/25 01:52:38;;;;;;;;;;;;;;;13.49;48.79;99726.50;4978986;28;6895;-76
2022/04/25 01:55:04;;;;;;;;;;;;;;;13.47;48.62;99734.16;5002497;28;6987;-75
2022/04/25 01:57:30;;;;;;;;;;;;;;;13.46;48.63;99733.31;4981869;28;6796;-75
2022/04/25 01:59:56;;;;;;;;;;;;;;;13.47;48.58;99740.19;4977634;28;6800;-75
2022/04/25 02:02:25;;;;;;;;;;;;;;;13.50;49.23;99733.38;4982492;28;6780;-75
2022/04/25 02:04:51;;;;;;;;;;;;;;;13.51;48.33;99737.69;4995811;28;6803;-75
2022/04/25 02:07:17;;;;;;;;;;;;;;;13.51;48.42;99748.00;4983305;28;6828;-75
2022/04/25 02:09:43;;;;;;;;;;;;;;;13.49;49.22;99732.53;4977293;28;6967;-75
2022/04/25 02:12:09;;;;;;;;;;;;;;;13.49;48.87;99744.50;4982550;28;7212;-75
2022/04/25 02:14:35;;;;;;;;;;;;;;;13.46;49.07;99738.47;4967110;28;7975;-75
2022/04/25 02:17:03;;;;;;;;;;;;;;;13.46;48.25;99742.72;4964017;28;6808;-75
2022/04/25 02:19:33;;;;;;;;;;;;;;;13.44;48.39;99741.78;4966256;28;6827;-75
2022/04/25 02:21:59;;;;;;;;;;;;;;;13.40;48.59;99734.84;4979627;28;6999;-75
2022/04/25 02:24:24;;;;;;;;;;;;;;;13.37;48.48;99733.03;4983476;28;6804;-75
2022/04/25 02:26:50;;;;;;;;;;;;;;;13.32;48.74;99729.47;4981517;28;8100;-75
2022/04/25 02:29:18;;;;;;;;;;;;;;;13.30;49.09;99720.84;4983206;28;7039;-75
2022/04/25 02:31:44;;;;;;;;;;;;;;;13.28;48.58;99733.69;4983162;28;6896;-75
2022/04/25 02:34:10;;;;;;;;;;;;;;;13.25;48.80;99732.72;4967909;28;6788;-75
2022/04/25 02:36:36;;;;;;;;;;;;;;;13.22;49.44;99730.06;4986134;28;7050;-75
2022/04/25 02:39:03;;;;;;;;;;;;;;;13.18;49.46;99729.09;4986373;28;7010;-75
2022/04/25 02:41:29;;;;;;;;;;;;;;;13.13;48.59;99722.97;4965640;28;6904;-75
2022/04/25 02:43:54;;;;;;;;;;;;;;;13.07;49.89;99723.69;4986314;28;6988;-75
2022/04/25 02:46:20;;;;;;;;;;;;;;;12.99;49.58;99720.91;4984314;28;6800;-75
2022/04/25 02:48:46;;;;;;;;;;;;;;;12.91;49.60;99725.84;4985341;28;7104;-75
2022/04/25 02:51:14;;;;;;;;;;;;;;;12.83;49.32;99724.75;4982906;28;7656;-75
2022/04/25 02:53:40;;;;;;;;;;;;;;;12.75;50.10;99729.69;4982887;28;7144;-75
2022/04/25 02:56:09;;;;;;;;;;;;;;;12.69;49.90;99726.06;5002693;28;7915;-75
2022/04/25 02:58:38;;;;;;;;;;;;;;;12.62;49.90;99731.03;4983208;28;6840;-75
2022/04/25 03:01:05;;;;;;;;;;;;;;;12.57;50.38;99732.59;4984958;28;7669;-75
2022/04/25 03:03:33;;;;;;;;;;;;;;;12.53;50.61;99729.91;5002589;28;6804;-75
2022/04/25 03:05:59;;;;;;;;;;;;;;;12.48;50.34;99728.06;4982722;28;6996;-75
2022/04/25 03:08:25;;;;;;;;;;;;;;;12.46;50.71;99734.00;4998577;28;6816;-75
2022/04/25 03:10:52;;;;;;;;;;;;;;;12.42;50.90;99729.56;4950767;28;6979;-75
2022/04/25 03:13:20;;;;;;;;;;;;;;;12.39;50.80;99725.22;4983673;28;6823;-75
2022/04/25 03:15:47;;;;;;;;;;;;;;;12.35;51.15;99721.66;4981600;28;6995;-75
2022/04/25 03:18:16;;;;;;;;;;;;;;;12.34;51.04;99713.94;4983180;28;6820;-75
2022/04/25 03:20:44;;;;;;;;;;;;;;;12.33;51.41;99722.47;4981914;28;7257;-75
2022/04/25 03:23:10;;;;;;;;;;;;;;;12.31;50.71;99716.38;4983550;28;8321;-75
2022/04/25 03:25:37;;;;;;;;;;;;;;;12.30;50.70;99718.09;4985285;28;6788;-75
2022/04/25 03:28:04;;;;;;;;;;;;;;;12.30;51.09;99718.09;4960915;28;6836;-75
2022/04/25 03:30:29;;;;;;;;;;;;;;;12.29;51.16;99724.06;4978684;28;7045;-75
2022/04/25 03:32:58;;;;;;;;;;;;;;;12.26;51.31;99725.69;4982680;28;7848;-75
2022/04/25 03:35:25;;;;;;;;;;;;;;;12.23;50.99;99734.16;4987609;28;6812;-76
2022/04/25 03:37:52;;;;;;;;;;;;;;;12.20;50.99;99731.50;4967196;28;7224;-75
2022/04/25 03:40:19;;;;;;;;;;;;;;;12.16;51.46;99730.53;4985154;28;6819;-75
2022/04/25 03:42:45;;;;;;;;;;;;;;;12.13;51.08;99730.44;4967002;28;6872;-75
2022/04/25 03:45:16;;;;;;;;;;;;;;;12.08;51.16;99732.88;4998302;28;7201;-75
2022/04/25 03:47:43;;;;;;;;;;;;;;;12.03;51.24;99738.69;4985826;28;7456;-75
2022/04/25 03:50:10;;;;;;;;;;;;;;;11.97;51.71;99729.03;4981436;28;6800;-75
2022/04/25 03:52:38;;;;;;;;;;;;;;;11.91;51.54;99734.00;4984206;28;7884;-75
2022/04/25 03:57:55;;;;;;;;;;;;;;;11.76;51.53;99740.38;4984115;28;6884;-75
2022/04/25 04:00:22;;;;;;;;;;;;;;;11.70;51.77;99739.31;4982535;28;7246;-75
2022/04/25 04:02:47;;;;;;;;;;;;;;;11.62;51.47;99742.47;4978807;28;7203;-75
2022/04/25 04:05:13;;;;;;;;;;;;;;;11.56;52.07;99736.28;4977130;28;7919;-75
2022/04/25 04:07:40;;;;;;;;;;;;;;;11.51;51.90;99752.41;4966627;28;6943;-75
2022/04/25 04:10:07;;;;;;;;;;;;;;;11.46;51.85;99751.38;4960201;28;7121;-75
2022/04/25 04:12:36;;;;;;;;;;;;;;;11.42;52.27;99754.66;4964459;28;6876;-75
2022/04/25 04:15:07;;;;;;;;;;;;;;;11.37;52.39;99757.06;4976080;28;7031;-75
2022/04/25 04:17:35;;;;;;;;;;;;;;;11.33;52.44;99759.47;4996385;28;8899;-75
2022/04/25 04:20:03;;;;;;;;;;;;;;;11.28;52.66;99756.75;4977377;28;7518;-75
2022/04/25 04:22:33;;;;;;;;;;;;;;;11.25;52.87;99754.94;4983462;28;6972;-75
2022/04/25 04:25:01;;;;;;;;;;;;;;;11.22;52.93;99761.66;4984883;28;7304;-75
2022/04/25 04:27:31;;;;;;;;;;;;;;;11.18;52.69;99755.53;4992041;28;7134;-74
2022/04/25 04:30:02;;;;;;;;;;;;;;;11.15;53.10;99752.00;4984804;28;6812;-74
2022/04/25 04:32:30;;;;;;;;;;;;;;;11.12;52.94;99757.91;4967727;28;8414;-75
2022/04/25 04:34:57;;;;;;;;;;;;;;;11.09;53.10;99760.34;5000032;28;6804;-75
2022/04/25 04:37:32;;;;;;;;;;;;;;;11.06;52.72;99760.25;4963644;28;6800;-75
2022/04/25 04:42:42;;;;;;;;;;;;;;;10.99;52.85;99761.72;4983991;28;6924;-75
2022/04/25 04:45:09;;;;;;;;;;;;;;;10.98;53.37;99765.13;4979249;28;6988;-75
2022/04/25 04:47:36;;;;;;;;;;;;;;;10.96;52.93;99764.16;4983033;28;8125;-75
2022/04/25 04:50:14;;;;;;;;;;;;;;;10.94;53.21;99771.81;5000175;28;6800;-75
2022/04/25 04:52:44;;;;;;;;;;;;;;;10.92;53.22;99768.34;4984289;28;6811;-75
2022/04/25 04:55:11;;;;;;;;;;;;;;;10.90;53.39;99771.66;4985502;28;7574;-75
2022/04/25 04:57:38;;;;;;;;;;;;;;;10.88;53.07;99774.16;4985425;28;6808;-75
2022/04/25 05:00:09;;;;;;;;;;;;;;;10.85;53.53;99771.47;4970710;28;6853;-75
2022/04/25 05:02:35;;;;;;;;;;;;;;;10.84;53.97;99785.13;4981874;28;6891;-75
2022/04/25 05:05:04;;;;;;;;;;;;;;;10.83;53.93;99785.94;4985136;28;6879;-75
2022/04/25 05:07:30;;;;;;;;;;;;;;;10.83;53.22;99785.94;4985312;28;6816;-75
2022/04/25 05:09:56;;;;;;;;;;;;;;;10.81;53.64;99787.53;4982993;28;7127;-75
2022/04/25 05:12:21;;;;;;;;;;;;;;;10.82;53.80;99789.31;4970243;28;7202;-75
2022/04/25 05:14:47;;;;;;;;;;;;;;;10.81;53.63;99791.00;5004917;28;6855;-75
2022/04/25 05:17:14;;;;;;;;;;;;;;;10.82;53.88;99794.44;4987986;28;6795;-75
2022/04/25 05:19:40;;;;;;;;;;;;;;;10.83;54.37;99799.59;4985715;28;7115;-75
2022/04/25 05:22:05;;;;;;;;;;;;;;;10.87;54.48;99795.47;5004542;28;6796;-75
2022/04/25 05:24:31;;;;;;;;;;;;;;;10.90;54.45;99797.28;4986190;28;6796;-75
2022/04/25 05:26:57;;;;;;;;;;;;;;;10.92;54.21;99796.53;4984932;28;7333;-75
2022/04/25 05:29:22;;;;;;;;;;;;;;;10.96;54.68;99802.63;5003873;28;6914;-75
2022/04/25 05:31:51;;;;;;;;;;;;;;;10.97;54.00;99800.13;4983651;28;6792;-75
2022/04/25 05:34:18;;;;;;;;;;;;;;;11.00;54.06;99801.03;4968629;28;7243;-75
2022/04/25 05:36:44;;;;;;;;;;;;;;;11.02;53.80;99799.44;4979890;28;7078;-75
2022/04/25 05:39:10;;;;;;;;;;;;;;;11.05;53.77;99809.78;4984080;28;6788;-75
2022/04/25 05:41:38;;;;;;;;;;;;;;;11.08;53.99;99815.91;4982993;28;7879;-75
2022/04/25 05:44:04;;;;;;;;;;;;;;;11.12;53.82;99822.03;4986192;28;6804;-75
2022/04/25 05:46:32;;;;;;;;;;;;;;;11.16;53.92;99817.88;4988292;28;7958;-75
2022/04/25 05:52:00;;;;;;;;;;;;;;;11.22;54.17;99826.69;4980475;28;6955;-75
2022/04/25 05:54:27;;;;;;;;;;;;;;;11.27;54.41;99831.09;4987783;28;7632;-75
2022/04/25 05:56:52;;;;;;;;;;;;;;;11.34;54.26;99838.19;4988929;28;6883;-75
2022/04/25 05:59:19;;;;;;;;;;;;;;;11.43;54.50;99840.19;4988967;28;6932;-75
2022/04/25 06:01:45;;;;;;;;;;;;;;;11.50;54.72;99839.59;4988630;28;6788;-75
2022/04/25 06:04:10;;;;;;;;;;;;;;;11.60;54.76;99846.81;4987887;28;7130;-75
2022/04/25 06:06:36;;;;;;;;;;;;;;;11.68;54.92;99841.94;5002737;28;6990;-75
2022/04/25 06:09:02;;;;;;;;;;;;;;;11.75;54.82;99846.47;4988015;28;7686;-75
2022/04/25 06:11:29;;;;;;;;;;;;;;;11.84;54.67;99850.16;4988807;28;6804;-75
2022/04/25 06:13:56;;;;;;;;;;;;;;;11.92;54.25;99853.88;4990085;28;6808;-75
2022/04/25 06:16:21;;;;;;;;;;;;;;;12.00;54.36;99854.13;4986195;28;6792;-75
2022/04/25 06:18:47;;;;;;;;;;;;;;;12.06;54.13;99854.38;4988576;28;6788;-75
2022/04/25 06:21:13;;;;;;;;;;;;;;;12.14;54.44;99854.59;4987892;28;7062;-75
2022/04/25 06:23:39;;;;;;;;;;;;;;;12.22;54.40;99853.16;5000167;28;6942;-76
2022/04/25 06:26:04;;;;;;;;;;;;;;;12.31;53.79;99856.03;4987716;28;7017;-75
2022/04/25 06:28:30;;;;;;;;;;;;;;;12.40;53.88;99857.16;4986829;28;6958;-75
2022/04/25 06:30:56;;;;;;;;;;;;;;;12.50;53.54;99856.63;4989083;28;6803;-75
2022/04/25 06:33:22;;;;;;;;;;;;;;;12.58;53.54;99859.41;4986038;28;6935;-75
2022/04/25 06:35:49;;;;;;;;;;;;;;;12.66;53.79;99860.53;5002557;28;6953;-75
2022/04/25 06:38:18;;;;;;;;;;;;;;;12.73;53.82;99852.19;4980337;28;7569;-76
2022/04/25 06:40:45;;;;;;;;;;;;;;;12.81;53.70;99856.69;4983903;28;7222;-76
2022/04/25 06:43:13;;;;;;;;;;;;;;;12.89;53.19;99853.53;4984895;28;7192;-76
2022/04/25 06:45:38;;;;;;;;;;;;;;;13.04;53.38;99862.53;4999856;28;7249;-76
2022/04/25 06:48:04;;;;;;;;;;;;;;;13.18;53.57;99861.22;4951030;28;7091;-76
2022/04/25 06:50:31;;;;;;;;;;;;;;;13.38;53.81;99863.47;4987699;28;6795;-76
2022/04/25 06:52:57;;;;;;;;;;;;;;;13.61;53.06;99865.84;4984611;28;6803;-76
2022/04/25 06:55:23;;;;;;;;;;;;;;;13.85;52.34;99865.63;4999050;28;7301;-76
2022/04/25 06:57:48;;;;;;;;;;;;;;;14.06;52.81;99868.72;4984873;28;6788;-76
2022/04/25 07:00:17;;;;;;;;;;;;;;;14.21;52.42;99876.84;4982751;28;6792;-76
2022/04/25 07:02:47;;;;;;;;;;;;;;;14.30;51.82;99879.63;4982436;28;7213;-75
2022/04/25 07:05:12;;;;;;;;;;;;;;;14.33;50.42;99873.66;4985952;28;7387;-75
2022/04/25 07:07:38;;;;;;;;;;;;;;;14.33;51.39;99883.13;4980386;28;7202;-75
2022/04/25 07:10:06;;;;;;;;;;;;;;;14.35;50.98;99871.13;4984302;28;6878;-74
2022/04/25 07:12:32;;;;;;;;;;;;;;;14.38;51.08;99881.50;4985065;28;7150;-74
2022/04/25 07:14:59;;;;;;;;;;;;;;;14.43;50.90;99877.34;4982700;28;6883;-74
2022/04/25 07:17:25;;;;;;;;;;;;;;;14.51;51.19;99888.72;4945113;28;7011;-74
2022/04/25 07:19:51;;;;;;;;;;;;;;;14.59;50.86;99881.16;5001781;28;6784;-74
2022/04/25 07:30:30;;;;;;;;;;;;;;;14.81;50.08;99890.28;4986905;28;6966;-75
2022/04/25 07:32:57;;;;;;;;;;;;;;;14.91;49.79;99895.66;4986437;28;8025;-75
2022/04/25 07:35:22;;;;;;;;;;;;;;;14.97;50.21;99888.06;4986483;28;6788;-75
2022/04/25 07:37:48;;;;;;;;;;;;;;;15.05;49.94;99896.81;4986794;28;6776;-75
2022/04/25 07:40:14;;;;;;;;;;;;;;;15.08;50.12;99896.03;5003381;28;7647;-75
2022/04/25 07:42:40;;;;;;;;;;;;;;;15.09;50.13;99896.06;5003294;28;6775;-74
2022/04/25 07:45:08;;;;;;;;;;;;;;;15.11;49.86;99896.97;4971474;28;6931;-74
2022/04/25 07:47:35;;;;;;;;;;;;;;;15.16;49.76;99897.06;4987841;28;7056;-74
2022/04/25 07:50:01;;;;;;;;;;;;;;;15.21;50.21;99902.31;4987442;28;7174;-74
2022/04/25 07:52:27;;;;;;;;;;;;;;;15.30;49.88;99905.09;4986279;28;6831;-74
2022/04/25 07:54:55;;;;;;;;;;;;;;;15.36;49.63;99907.81;4985626;28;6800;-74
2022/04/25 07:57:21;;;;;;;;;;;;;;;15.39;50.02;99905.28;4985467;28;6796;-74
2022/04/25 07:59:47;;;;;;;;;;;;;;;15.44;49.61;99910.53;4984739;28;7170;-74
2022/04/25 08:02:17;;;;;;;;;;;;;;;15.51;49.01;99916.69;5002714;28;6875;-74
2022/04/25 08:04:45;;;;;;;;;;;;;;;15.58;49.07;99910.81;4969057;28;6965;-74
2022/04/25 08:07:12;;;;;;;;;;;;;;;15.68;49.60;99914.44;4949484;28;7238;-74
2022/04/25 08:09:38;;;;;;;;;;;;;;;15.77;49.24;99909.44;4986155;28;6796;-74
2022/04/25 08:20:20;;;;;;;;;;;;;;;16.54;48.17;99910.78;4986030;28;6963;-75
2022/04/25 08:22:46;;;;;;;;;;;;;;;16.74;48.06;99917.16;4985526;28;6884;-74
2022/04/25 08:25:13;;;;;;;;;;;;;;;16.91;47.79;99909.63;4985357;28;7149;-74
2022/04/25 08:27:38;;;;;;;;;;;;;;;17.08;47.30;99920.22;4970829;28;8288;-74
2022/04/25 08:30:05;;;;;;;;;;;;;;;17.26;47.04;99920.47;4985261;28;7027;-75
2022/04/25 08:32:33;;;;;;;;;;;;;;;17.40;46.80;99915.47;4985523;28;7002;-74
2022/04/25 08:35:01;;;;;;;;;;;;;;;17.47;46.03;99920.72;4967978;28;7162;-75
2022/04/25 08:37:28;;;;;;;;;;;;;;;17.56;45.95;99926.88;4958003;28;8694;-75
2022/04/25 08:39:54;;;;;;;;;;;;;;;17.65;45.82;99926.09;4985000;28;6978;-74
2022/04/25 08:42:20;;;;;;;;;;;;;;;17.71;45.53;99932.22;4979678;28;7167;-74
2022/04/25 08:44:52;;;;;;;;;;;;;;;17.80;45.40;99933.19;4985422;28;6784;-74
2022/04/25 08:47:18;;;;;;;;;;;;;;;17.88;44.82;99937.59;4983185;28;7210;-74
2022/04/25 08:49:44;;;;;;;;;;;;;;;17.96;45.32;99934.19;4983714;28;6819;-74
2022/04/25 08:52:10;;;;;;;;;;;;;;;18.03;44.84;99936.94;4965277;28;6942;-74
2022/04/25 08:54:37;;;;;;;;;;;;;;;18.10;43.99;99943.03;4984483;28;8091;-74
2022/04/25 08:57:04;;;;;;;;;;;;;;;18.11;44.04;99944.78;4984169;28;6811;-74
2022/04/25 08:59:33;;;;;;;;;;;;;;;18.15;43.77;99943.94;4986663;28;6804;-74
2022/04/25 09:01:59;;;;;;;;;;;;;;;18.22;43.60;99942.28;4967553;28;6808;-74
2022/04/25 09:04:24;;;;;;;;;;;;;;;18.29;43.73;99951.84;4999414;28;7416;-74
2022/04/25 09:06:51;;;;;;;;;;;;;;;18.33;43.30;99952.75;5000517;28;7066;-74
2022/04/25 09:09:20;;;;;;;;;;;;;;;18.32;43.16;99958.78;4981819;28;6804;-74
2022/04/25 09:14:32;;;;;;;;;;;;;;;18.16;42.50;99963.84;4986333;28;6978;-74
2022/04/25 09:17:00;;;;;;;;;;;;;;;18.10;43.34;99963.78;4983061;28;6804;-74
2022/04/25 09:19:26;;;;;;;;;;;;;;;18.11;43.44;99962.94;4984966;28;6800;-74
2022/04/25 09:21:52;;;;;;;;;;;;;;;18.13;43.48;99963.81;4985126;28;6799;-74
2022/04/25 09:24:30;;;;;;;;;;;;;;;18.17;43.40;99967.31;4983589;28;6783;-74
2022/04/25 09:27:08;;;;;;;;;;;;;;;18.17;43.33;99965.59;4962979;28;7549;-74
2022/04/25 09:29:36;;;;;;;;;;;;;;;18.13;43.01;99973.31;4986343;28;6811;-74
2022/04/25 09:32:03;;;;;;;;;;;;;;;18.09;43.37;99972.41;4997618;28;8239;-74
2022/04/25 09:37:17;;;;;;;;;;;;;;;18.02;42.58;99966.28;4983329;28;6880;-74
2022/04/25 09:39:42;;;;;;;;;;;;;;;17.99;43.25;99980.91;4964624;28;7138;-74
2022/04/25 09:42:09;;;;;;;;;;;;;;;18.01;42.85;99976.63;4963449;28;7212;-74
2022/04/25 09:44:56;;;;;;;;;;;;;;;17.98;42.97;99974.00;4981650;28;7257;-74
2022/04/25 09:47:24;;;;;;;;;;;;;;;17.93;43.19;99980.84;4982275;28;6808;-74
2022/04/25 09:50:13;;;;;;;;;;;;;;;17.90;43.07;99977.38;4983339;28;7068;-74
2022/04/25 09:53:06;;;;;;;;;;;;;;;17.96;43.15;99979.16;4981618;28;6876;-74
2022/04/25 09:55:36;;;;;;;;;;;;;;;18.11;42.58;99975.03;4964543;28;6809;-74
2022/04/25 09:58:22;;;;;;;;;;;;;;;18.39;43.15;99978.75;4984107;28;6824;-75
2022/04/25 10:00:49;;;;;;;;;;;;;;;18.93;42.69;99967.06;4988856;28;6808;-75
2022/04/25 10:03:17;;;;;;;;;;;;;;;19.23;41.33;99974.22;4973432;28;7003;-75
2022/04/25 10:05:52;;;;;;;;;;;;;;;19.28;40.95;99975.09;4973205;28;7448;-75
2022/04/25 10:08:19;;;;;;;;;;;;;;;19.35;41.18;99967.34;4990473;28;8091;-74
2022/04/25 10:10:53;;;;;;;;;;;;;;;19.86;41.93;99975.34;4990520;28;6808;-74
2022/04/25 10:13:20;;;;;;;;;;;;;;;20.74;41.11;99979.81;4973784;28;6850;-74
2022/04/25 10:15:46;;;;;;;;;;;;;;;21.68;39.66;99964.84;4991239;28;6792;-75
2022/04/25 10:18:13;;;;;;;;;;;;;;;22.53;38.77;99971.28;4991910;28;6820;-75
2022/04/25 10:20:44;;;;;;;;;;;;;;;23.38;37.70;99968.72;4990230;28;7005;-75
2022/04/25 10:23:12;;;;;;;;;;;;;;;24.14;36.73;99967.72;5007198;28;6820;-75
2022/04/25 10:25:45;;;;;;;;;;;;;;;24.90;36.06;99973.50;4970190;28;6983;-75
2022/04/25 10:28:37;;;;;;;;;;;;;;;25.56;34.54;99965.28;4990711;28;6891;-75
2022/04/25 10:31:27;;;;;;;;;;;;;;;26.11;33.86;99968.44;4990342;28;7091;-75
2022/04/25 10:33:55;;;;;;;;;;;;;;;26.52;32.87;99970.13;4980613;28;7013;-75
2022/04/25 10:36:39;;;;;;;;;;;;;;;26.59;32.23;99969.06;4991131;28;7313;-75
2022/04/25 10:39:27;;;;;;;;;;;;;;;26.55;32.27;99967.41;4993465;28;6804;-75
2022/04/25 10:44:43;;;;;;;;;;;;;;;25.42;30.66;99968.16;4996063;28;7071;-75
2022/04/25 10:47:16;;;;;;;;;;;;;;;24.54;30.78;99979.34;4997778;28;6949;-75
2022/04/25 10:49:43;;;;;;;;;;;;;;;24.01;32.07;99985.38;4995625;28;6808;-75
2022/04/25 10:52:33;;;;;;;;;;;;;;;24.06;32.31;99977.47;4995615;28;6955;-75
2022/04/25 10:55:29;;;;;;;;;;;;;;;24.99;32.71;99968.09;4981888;28;6796;-75
2022/04/25 10:58:01;;;;;;;;;;;;;;;26.19;31.22;99958.66;5009939;28;6976;-75
2022/04/25 11:00:36;;;;;;;;;;;;;;;27.01;30.43;99962.75;4998280;28;6803;-75
2022/04/25 11:03:27;;;;;;;;;;;;;;;27.52;29.58;99958.66;4993755;28;6977;-75
2022/04/25 11:05:57;;;;;;;;;;;;;;;27.63;29.21;99973.31;4998576;28;6812;-75
2022/04/25 11:08:25;;;;;;;;;;;;;;;27.00;29.10;99971.56;4990339;28;6958;-74
2022/04/25 11:11:09;;;;;;;;;;;;;;;25.78;29.31;99977.03;4989757;28;6808;-75
2022/04/25 11:13:56;;;;;;;;;;;;;;;24.35;30.98;99986.66;4967329;28;7081;-75
2022/04/25 11:16:26;;;;;;;;;;;;;;;23.37;31.38;99991.41;4986709;28;6972;-74
2022/04/25 11:19:17;;;;;;;;;;;;;;;22.55;32.29;99995.63;4972349;28;6827;-74
2022/04/25 11:21:55;;;;;;;;;;;;;;;21.83;33.11;99994.34;4989527;28;6981;-74
2022/04/25 11:24:38;;;;;;;;;;;;;;;21.29;33.70;100003.19;4988451;28;7253;-75
2022/04/25 11:27:09;;;;;;;;;;;;;;;20.91;34.15;100013.66;4977287;28;6832;-74
2022/04/25 11:29:44;;;;;;;;;;;;;;;20.51;34.52;100011.03;4991461;28;6836;-74
2022/04/25 11:32:36;;;;;;;;;;;;;;;20.12;35.42;100006.66;4989000;28;6812;-74
2022/04/25 11:35:04;;;;;;;;;;;;;;;19.83;35.02;100012.59;4989287;28;7082;-74
2022/04/25 11:37:33;;;;;;;;;;;;;;;19.54;35.52;100015.06;4987105;28;6946;-74
2022/04/25 11:40:06;;;;;;;;;;;;;;;19.27;36.08;100009.72;4991409;28;6818;-74
2022/04/25 11:42:35;;;;;;;;;;;;;;;19.02;36.91;100013.91;4992068;28;6812;-74
2022/04/25 11:45:02;;;;;;;;;;;;;;;18.81;36.90;100017.16;4988217;28;6800;-74
2022/04/25 11:47:31;;;;;;;;;;;;;;;18.61;37.64;100025.66;4995257;28;6895;-74
2022/04/25 11:50:04;;;;;;;;;;;;;;;18.50;38.04;100017.78;4988214;28;6812;-74
2022/04/25 11:52:30;;;;;;;;;;;;;;;18.45;38.48;100019.44;4989342;28;6811;-75
2022/04/25 11:54:57;;;;;;;;;;;;;;;18.42;38.95;100022.03;4971883;28;6967;-75
2022/04/25 11:57:26;;;;;;;;;;;;;;;18.36;39.04;100028.03;4989663;28;6812;-75
2022/04/25 12:00:15;;;;;;;;;;;;;;;18.35;39.71;100026.28;4988212;28;6808;-74
2022/04/25 12:02:41;;;;;;;;;;;;;;;18.38;39.70;100025.44;4990294;28;6889;-74
2022/04/25 12:05:09;;;;;;;;;;;;;;;18.49;39.49;100023.78;5005679;28;6804;-74
2022/04/25 12:15:33;;;;;;;;;;;;;;;18.67;40.20;100025.72;4992928;28;6820;-74
2022/04/25 12:15:58;;;;;;;;;;;;;;;20.15;40.00;100023.13;4993798;28;7312;-75
2022/04/25 12:18:30;;;;;;;;;;;;;;;21.06;38.68;100022.34;4994650;28;7158;-74
2022/04/25 12:21:13;;;;;;;;;;;;;;;22.01;37.02;100027.28;4992802;28;6819;-74
2022/04/25 12:23:52;;;;;;;;;;;;;;;22.42;36.14;100017.47;4973365;28;7038;-74
2022/04/25 12:26:21;;;;;;;;;;;;;;;22.41;36.25;100013.13;4990433;28;6816;-74
2022/04/25 12:28:59;;;;;;;;;;;;;;;22.63;36.46;100023.44;4991105;28;6994;-74
2022/04/25 12:31:27;;;;;;;;;;;;;;;23.07;35.77;100022.16;4994187;28;6969;-74
2022/04/25 12:33:53;;;;;;;;;;;;;;;23.32;35.78;100019.34;4988297;28;6832;-74
2022/04/25 12:36:23;;;;;;;;;;;;;;;23.38;34.54;100019.28;5006574;28;6816;-74
2022/04/25 12:39:01;;;;;;;;;;;;;;;23.49;35.03;100015.69;5003820;28;6824;-74
2022/04/25 12:41:31;;;;;;;;;;;;;;;23.91;34.44;100013.41;4991441;28;6875;-74
2022/04/25 12:44:00;;;;;;;;;;;;;;;24.24;33.09;100015.59;4990264;28;7173;-74
2022/04/25 12:46:46;;;;;;;;;;;;;;;24.19;32.87;100014.78;4991563;28;7227;-74
2022/04/25 12:49:17;;;;;;;;;;;;;;;24.18;32.80;100011.31;4994791;28;7045;-74
2022/04/25 12:51:52;;;;;;;;;;;;;;;24.00;32.84;100013.28;4974020;28;7127;-74
2022/04/25 12:54:31;;;;;;;;;;;;;;;23.64;33.09;100014.63;4989079;28;8271;-74
2022/04/25 12:57:16;;;;;;;;;;;;;;;23.09;32.71;100017.81;4985404;28;6984;-74
2022/04/25 13:00:04;;;;;;;;;;;;;;;22.41;33.27;100018.34;4984937;28;7202;-74
2022/04/25 13:02:36;;;;;;;;;;;;;;;21.86;33.12;100021.25;5000027;28;7182;-74
2022/04/25 13:05:07;;;;;;;;;;;;;;;21.49;33.72;100024.84;4984965;28;6816;-74
2022/04/25 13:07:39;;;;;;;;;;;;;;;21.37;34.09;100023.13;4990260;28;7535;-74
2022/04/25 13:10:14;;;;;;;;;;;;;;;21.50;33.62;100026.56;4956851;28;6983;-74
2022/04/25 13:12:46;;;;;;;;;;;;;;;21.77;33.58;100022.19;4992358;28;6796;-74
2022/04/25 13:15:20;;;;;;;;;;;;;;;22.09;33.15;100027.22;4987476;28;6808;-74
2022/04/25 13:17:48;;;;;;;;;;;;;;;22.51;32.31;100019.16;4988112;28;7161;-74
2022/04/25 13:20:17;;;;;;;;;;;;;;;22.44;31.73;100021.78;4966030;28;7190;-74
2022/04/25 13:22:44;;;;;;;;;;;;;;;21.98;32.17;100022.94;4988078;28;6959;-74
2022/04/25 13:25:14;;;;;;;;;;;;;;;21.45;32.38;100023.13;4989891;28;6892;-74
2022/04/25 13:27:41;;;;;;;;;;;;;;;21.11;33.07;100031.00;4991700;28;7045;-74
2022/04/25 13:30:12;;;;;;;;;;;;;;;20.93;33.26;100035.38;4987320;28;6888;-74
2022/04/25 13:32:38;;;;;;;;;;;;;;;20.72;33.39;100035.34;4987590;28;6858;-74
2022/04/25 13:35:06;;;;;;;;;;;;;;;20.77;33.70;100036.22;4988559;28;7000;-74
2022/04/25 13:37:32;;;;;;;;;;;;;;;21.08;33.88;100036.25;4972249;28;6976;-74
2022/04/25 13:40:03;;;;;;;;;;;;;;;21.57;33.61;100024.81;4991309;28;6807;-74
2022/04/25 13:42:29;;;;;;;;;;;;;;;22.05;33.63;100022.03;4987424;28;6792;-74
2022/04/25 13:44:56;;;;;;;;;;;;;;;22.52;32.95;100020.91;5007178;28;7178;-74
2022/04/25 13:47:23;;;;;;;;;;;;;;;22.87;32.79;100025.81;4977199;28;6983;-74